< < Back
Terminal Aerodrome Forecast


Current Version              Previous Versions:   1  2  3  4  5  6  7  8  9  

Terminal Aerodrome Forecast

186
FTUS42 KCHS 240000 AAA
TAFSAV
TAF AMD
KSAV 240057Z 2401/2424 VRB03KT P6SM SKC
     FM240900 04007KT P6SM SKC
     FM241400 08010G17KT P6SM FEW040
     FM241900 12013G19KT P6SM SCT040=

Latest METAR

324
SAUS80 KWBC 241400
MTRSAV
METAR KSAV 241353Z 07007KT 9SM CLR 22/17 A3003 RMK AO2 SLP170
T02170167


USA.gov is the U.S. government's official web portal to all federal, state and local government web resources and services.